Time;durP1;ratioP1;P1;durP2;ratioP2;P2;SDS_P1;SDS_P2;PMS_P1;PMS_P2;Temp;Humidity;BMP_temperature;BMP_pressure;BME280_temperature;BME280_humidity;BME280_pressure;Samples;Min_cycle;Max_cycle;Signal;HPM_P1;HPM_P2
2022/04/21 00:00:51;;;;;;;0.75;0.45;;;;;;;;;;4181279;28;20114;-46
2022/04/21 00:02:53;;;;;;;0.30;0.30;;;;;;;;;;4163605;28;20054;-46
2022/04/21 00:04:55;;;;;;;0.60;0.40;;;;;;;;;;4180151;28;20151;-46
2022/04/21 00:06:56;;;;;;;0.28;0.28;;;;;;;;;;4181247;28;20048;-46
2022/04/21 00:08:57;;;;;;;0.20;0.20;;;;;;;;;;4181007;28;20049;-46
2022/04/21 00:10:58;;;;;;;0.40;0.30;;;;;;;;;;4179903;28;20048;-46
2022/04/21 00:12:59;;;;;;;0.47;0.30;;;;;;;;;;4181222;28;20142;-46
2022/04/21 00:15:03;;;;;;;0.60;0.50;;;;;;;;;;4179693;28;20433;-46
2022/04/21 00:17:04;;;;;;;0.68;0.30;;;;;;;;;;4181118;28;20099;-46
2022/04/21 00:19:06;;;;;;;0.32;0.30;;;;;;;;;;4180867;28;20049;-46
2022/04/21 00:21:07;;;;;;;0.45;0.45;;;;;;;;;;4181189;28;20072;-46
2022/04/21 00:23:26;;;;;;;0.40;0.35;;;;;;;;;;4180990;28;20049;-46
2022/04/21 00:25:29;;;;;;;0.35;0.35;;;;;;;;;;4164500;28;20469;-46
2022/04/21 00:27:30;;;;;;;0.40;0.40;;;;;;;;;;4163209;28;20103;-46
2022/04/21 00:29:31;;;;;;;0.30;0.30;;;;;;;;;;4146800;28;20053;-46
2022/04/21 00:31:32;;;;;;;0.50;0.38;;;;;;;;;;4164563;28;20057;-46
2022/04/21 00:33:33;;;;;;;0.20;0.20;;;;;;;;;;4164299;28;20370;-46
2022/04/21 00:35:35;;;;;;;0.40;0.28;;;;;;;;;;4164618;28;20120;-46
2022/04/21 00:37:49;;;;;;;0.47;0.40;;;;;;;;;;4164323;28;20050;-46
2022/04/21 00:39:50;;;;;;;0.40;0.35;;;;;;;;;;4163929;28;20049;-46
2022/04/21 00:41:55;;;;;;;0.45;0.30;;;;;;;;;;4164261;28;20056;-46
2022/04/21 00:43:57;;;;;;;0.20;0.20;;;;;;;;;;4164300;28;20049;-45
2022/04/21 00:45:58;;;;;;;0.50;0.40;;;;;;;;;;4162829;28;20057;-46
2022/04/21 00:48:02;;;;;;;0.30;0.30;;;;;;;;;;4164550;28;20084;-46
2022/04/21 00:50:03;;;;;;;0.40;0.35;;;;;;;;;;4164178;28;20053;-46
2022/04/21 00:52:05;;;;;;;0.32;0.30;;;;;;;;;;4164175;28;20099;-46
2022/04/21 00:54:06;;;;;;;0.50;0.30;;;;;;;;;;4163803;28;20064;-46
2022/04/21 00:56:07;;;;;;;0.30;0.30;;;;;;;;;;4146359;28;20050;-46
2022/04/21 00:58:08;;;;;;;0.40;0.35;;;;;;;;;;4162601;28;20509;-46
2022/04/21 01:00:11;;;;;;;0.25;0.25;;;;;;;;;;4177524;28;20060;-46
2022/04/21 01:04:33;;;;;;;0.30;0.30;;;;;;;;;;4179025;28;20065;-46
2022/04/21 01:06:34;;;;;;;0.20;0.20;;;;;;;;;;4180468;28;20139;-46
2022/04/21 01:08:39;;;;;;;0.20;0.20;;;;;;;;;;4179322;28;20534;-46
2022/04/21 01:10:43;;;;;;;0.38;0.35;;;;;;;;;;4180241;28;20053;-46
2022/04/21 01:12:45;;;;;;;0.32;0.30;;;;;;;;;;4180211;28;20114;-46
2022/04/21 01:14:46;;;;;;;0.35;0.30;;;;;;;;;;4180448;28;20137;-46
2022/04/21 01:16:47;;;;;;;0.40;0.40;;;;;;;;;;4180460;28;20079;-46
2022/04/21 01:18:50;;;;;;;0.20;0.20;;;;;;;;;;4178845;28;20401;-46
2022/04/21 01:20:52;;;;;;;0.28;0.28;;;;;;;;;;4180198;28;20049;-46
2022/04/21 01:22:53;;;;;;;0.30;0.30;;;;;;;;;;4180334;28;20115;-46
2022/04/21 01:24:55;;;;;;;0.75;0.40;;;;;;;;;;4179720;28;20489;-46
2022/04/21 01:26:57;;;;;;;0.30;0.30;;;;;;;;;;4179895;28;20504;-46
2022/04/21 01:28:59;;;;;;;0.30;0.30;;;;;;;;;;4179904;28;20049;-46
2022/04/21 01:31:00;;;;;;;0.20;0.20;;;;;;;;;;4178770;28;20513;-46
2022/04/21 01:33:01;;;;;;;0.80;0.50;;;;;;;;;;4180091;28;20048;-46
2022/04/21 01:35:07;;;;;;;0.30;0.30;;;;;;;;;;4179840;28;20146;-46
2022/04/21 01:41:47;;;;;;;;;;;;;;;;;;4178438;28;20057;-47
2022/04/21 01:43:48;;;;;;;0.30;0.30;;;;;;;;;;4177714;28;20505;-46
2022/04/21 01:45:50;;;;;;;0.32;0.32;;;;;;;;;;4176313;28;20106;-45
2022/04/21 01:47:51;;;;;;;0.77;0.32;;;;;;;;;;4177922;28;20045;-47
2022/04/21 01:49:52;;;;;;;0.55;0.50;;;;;;;;;;4177505;28;20293;-46
2022/04/21 01:51:53;;;;;;;0.50;0.35;;;;;;;;;;4177423;28;20503;-46
2022/04/21 01:53:56;;;;;;;0.30;0.20;;;;;;;;;;4177242;28;20064;-46
2022/04/21 01:55:57;;;;;;;0.32;0.32;;;;;;;;;;4177381;28;20110;-47
2022/04/21 01:57:58;;;;;;;0.22;0.22;;;;;;;;;;4177507;28;20045;-46
2022/04/21 02:00:00;;;;;;;0.20;0.20;;;;;;;;;;4159518;28;20097;-46
2022/04/21 02:02:01;;;;;;;0.15;0.15;;;;;;;;;;4176110;28;20561;-46
2022/04/21 02:04:02;;;;;;;0.40;0.40;;;;;;;;;;4177231;28;20567;-46
2022/04/21 02:06:04;;;;;;;0.45;0.40;;;;;;;;;;4177537;28;20508;-46
2022/04/21 02:08:07;;;;;;;0.25;0.20;;;;;;;;;;4177191;28;20099;-47
2022/04/21 02:10:08;;;;;;;0.40;0.40;;;;;;;;;;4176867;28;20110;-47
2022/04/21 02:12:11;;;;;;;0.32;0.28;;;;;;;;;;4177271;28;20393;-46
2022/04/21 02:14:13;;;;;;;0.43;0.43;;;;;;;;;;4177058;28;20458;-46
2022/04/21 02:16:14;;;;;;;0.47;0.30;;;;;;;;;;4177302;28;20107;-46
2022/04/21 02:18:17;;;;;;;0.52;0.40;;;;;;;;;;4177139;28;20079;-46
2022/04/21 02:20:18;;;;;;;0.30;0.30;;;;;;;;;;4176642;28;20056;-46
2022/04/21 02:22:19;;;;;;;0.25;0.25;;;;;;;;;;4177294;28;20496;-46
2022/04/21 02:24:20;;;;;;;0.60;0.40;;;;;;;;;;4175513;28;20186;-46
2022/04/21 02:26:21;;;;;;;0.32;0.30;;;;;;;;;;4175148;28;20079;-46
2022/04/21 02:28:23;;;;;;;0.30;0.30;;;;;;;;;;4162713;28;20123;-46
2022/04/21 02:30:24;;;;;;;0.30;0.28;;;;;;;;;;4162770;28;20053;-46
2022/04/21 02:32:25;;;;;;;0.30;0.20;;;;;;;;;;4162776;28;20050;-46
2022/04/21 02:34:28;;;;;;;0.25;0.25;;;;;;;;;;4162489;28;20182;-46
2022/04/21 02:36:30;;;;;;;0.20;0.20;;;;;;;;;;4162876;28;20112;-46
2022/04/21 02:38:31;;;;;;;0.40;0.38;;;;;;;;;;4171252;28;20110;-46
2022/04/21 02:40:32;;;;;;;0.30;0.30;;;;;;;;;;4179287;28;20493;-46
2022/04/21 02:42:33;;;;;;;0.10;0.10;;;;;;;;;;4179186;28;20102;-46
2022/04/21 02:44:35;;;;;;;0.28;0.28;;;;;;;;;;4179017;28;20049;-46
2022/04/21 02:46:37;;;;;;;0.22;0.22;;;;;;;;;;4179328;28;20053;-46
2022/04/21 02:48:38;;;;;;;0.20;0.20;;;;;;;;;;4179035;28;20555;-46
2022/04/21 02:50:40;;;;;;;0.55;0.22;;;;;;;;;;4179076;28;20053;-46
2022/04/21 02:52:42;;;;;;;0.30;0.30;;;;;;;;;;4178975;28;20076;-47
2022/04/21 02:57:21;;;;;;;0.45;0.30;;;;;;;;;;4179083;28;20426;-46
2022/04/21 02:59:22;;;;;;;0.30;0.30;;;;;;;;;;4179347;28;20448;-46
2022/04/21 03:01:23;;;;;;;0.20;0.20;;;;;;;;;;4177467;28;20057;-46
2022/04/21 03:03:25;;;;;;;0.73;0.30;;;;;;;;;;4179210;28;20076;-46
2022/04/21 03:05:26;;;;;;;0.20;0.20;;;;;;;;;;4178916;28;20053;-46
2022/04/21 03:07:27;;;;;;;0.20;0.20;;;;;;;;;;4179252;28;20095;-46
2022/04/21 03:09:29;;;;;;;0.63;0.50;;;;;;;;;;4178309;28;20053;-46
2022/04/21 03:11:30;;;;;;;0.30;0.30;;;;;;;;;;4177830;28;20049;-46
2022/04/21 03:13:31;;;;;;;0.50;0.30;;;;;;;;;;4178757;28;20053;-46
2022/04/21 03:15:33;;;;;;;1.50;0.95;;;;;;;;;;4178817;28;20061;-46
2022/04/21 03:17:34;;;;;;;0.20;0.20;;;;;;;;;;4178895;28;20057;-46
2022/04/21 03:19:37;;;;;;;0.30;0.20;;;;;;;;;;4179002;28;20132;-46
2022/04/21 03:26:17;;;;;;;0.40;0.30;;;;;;;;;;4179088;28;20053;-46
2022/04/21 03:28:18;;;;;;;0.40;0.30;;;;;;;;;;4178588;28;20071;-46
2022/04/21 03:30:19;;;;;;;0.38;0.30;;;;;;;;;;4177452;28;20099;-46
2022/04/21 03:32:20;;;;;;;0.20;0.20;;;;;;;;;;4181363;28;20052;-46
2022/04/21 03:34:21;;;;;;;0.28;0.20;;;;;;;;;;4181857;28;20064;-46
2022/04/21 03:36:23;;;;;;;0.30;0.30;;;;;;;;;;4181707;28;20065;-46
2022/04/21 03:38:24;;;;;;;0.25;0.20;;;;;;;;;;4181312;28;20060;-45
2022/04/21 03:40:25;;;;;;;0.45;0.40;;;;;;;;;;4181599;28;20079;-46
2022/04/21 03:42:27;;;;;;;0.70;0.20;;;;;;;;;;4181716;28;20485;-46
2022/04/21 03:44:29;;;;;;;0.30;0.30;;;;;;;;;;4180195;28;20099;-46
2022/04/21 03:46:31;;;;;;;0.30;0.30;;;;;;;;;;4181494;28;20056;-46
2022/04/21 03:48:32;;;;;;;0.20;0.20;;;;;;;;;;4181471;28;20056;-46
2022/04/21 03:50:34;;;;;;;0.28;0.20;;;;;;;;;;4181771;28;20060;-46
2022/04/21 03:52:35;;;;;;;0.30;0.25;;;;;;;;;;4181624;28;20057;-46
2022/04/21 03:54:37;;;;;;;0.45;0.20;;;;;;;;;;4179559;28;20060;-46
2022/04/21 03:56:38;;;;;;;0.20;0.20;;;;;;;;;;4181411;28;20052;-46
2022/04/21 03:58:39;;;;;;;0.28;0.28;;;;;;;;;;4181231;28;20048;-46
2022/04/21 04:00:40;;;;;;;0.20;0.20;;;;;;;;;;4181462;28;20068;-46
2022/04/21 04:02:41;;;;;;;0.20;0.20;;;;;;;;;;4181487;28;20049;-46
2022/04/21 04:04:42;;;;;;;0.20;0.20;;;;;;;;;;4181222;28;20454;-46
2022/04/21 04:11:23;;;;;;;0.45;0.38;;;;;;;;;;4181214;28;20114;-46
2022/04/21 04:13:24;;;;;;;0.20;0.20;;;;;;;;;;4179877;28;20098;-46
2022/04/21 04:15:26;;;;;;;0.38;0.30;;;;;;;;;;4181378;28;20057;-46
2022/04/21 04:17:27;;;;;;;0.10;0.10;;;;;;;;;;4179943;28;20056;-46
2022/04/21 04:19:28;;;;;;;0.20;0.20;;;;;;;;;;4181141;28;20049;-46
2022/04/21 04:21:30;;;;;;;0.47;0.40;;;;;;;;;;4181028;28;20094;-46
2022/04/21 04:23:32;;;;;;;0.15;0.15;;;;;;;;;;4180824;28;20056;-46
2022/04/21 04:25:33;;;;;;;0.30;0.30;;;;;;;;;;4179648;28;20528;-46
2022/04/21 04:27:36;;;;;;;0.25;0.20;;;;;;;;;;4180981;28;20060;-47
2022/04/21 04:29:37;;;;;;;0.20;0.20;;;;;;;;;;4179553;28;20059;-47
2022/04/21 04:31:40;;;;;;;0.30;0.30;;;;;;;;;;4179531;28;20119;-46
2022/04/21 04:33:41;;;;;;;0.38;0.32;;;;;;;;;;4180951;28;20102;-46
2022/04/21 04:35:43;;;;;;;0.80;0.38;;;;;;;;;;4179639;28;20091;-46
2022/04/21 04:37:44;;;;;;;0.40;0.30;;;;;;;;;;4180702;28;20056;-46
2022/04/21 04:39:45;;;;;;;0.25;0.20;;;;;;;;;;4180546;28;20106;-46
2022/04/21 04:44:06;;;;;;;0.30;0.30;;;;;;;;;;4179989;28;20485;-46
2022/04/21 04:48:26;;;;;;;0.10;0.10;;;;;;;;;;4180879;28;20052;-47
2022/04/21 04:50:28;;;;;;;0.32;0.32;;;;;;;;;;4180803;28;20049;-46
2022/04/21 04:52:29;;;;;;;0.50;0.30;;;;;;;;;;4179406;28;20079;-47
2022/04/21 04:54:30;;;;;;;0.20;0.20;;;;;;;;;;4180323;28;20119;-46
2022/04/21 04:56:33;;;;;;;0.30;0.20;;;;;;;;;;4180643;28;20049;-46
2022/04/21 04:58:40;;;;;;;0.20;0.20;;;;;;;;;;4180522;28;20546;-46
2022/04/21 05:00:42;;;;;;;0.25;0.25;;;;;;;;;;4177850;28;20356;-46
2022/04/21 05:02:44;;;;;;;0.20;0.20;;;;;;;;;;4178779;28;20060;-46
2022/04/21 05:04:48;;;;;;;0.28;0.28;;;;;;;;;;4178459;28;20489;-46
2022/04/21 05:06:51;;;;;;;0.25;0.22;;;;;;;;;;4178565;28;20488;-47
2022/04/21 05:08:52;;;;;;;0.40;0.30;;;;;;;;;;4178316;28;20076;-42
2022/04/21 05:10:53;;;;;;;0.20;0.20;;;;;;;;;;4178521;28;20084;-43
2022/04/21 05:12:54;;;;;;;0.30;0.20;;;;;;;;;;4178236;28;20724;-49
2022/04/21 05:14:56;;;;;;;0.20;0.20;;;;;;;;;;4178293;28;20053;-45
2022/04/21 05:16:58;;;;;;;0.22;0.20;;;;;;;;;;4178517;28;20061;-46
2022/04/21 05:18:59;;;;;;;0.30;0.30;;;;;;;;;;4178077;28;20048;-47
2022/04/21 05:21:00;;;;;;;0.32;0.28;;;;;;;;;;4171692;28;20053;-45
2022/04/21 05:23:05;;;;;;;0.30;0.20;;;;;;;;;;4165866;28;20452;-44
2022/04/21 05:25:10;;;;;;;0.65;0.40;;;;;;;;;;4163118;28;20127;-44
2022/04/21 05:27:12;;;;;;;0.20;0.20;;;;;;;;;;4174761;28;20110;-42
2022/04/21 05:31:34;;;;;;;1.55;0.80;;;;;;;;;;4178192;28;20118;-48
2022/04/21 05:33:37;;;;;;;0.40;0.22;;;;;;;;;;4177892;28;20049;-43
2022/04/21 05:35:39;;;;;;;0.25;0.20;;;;;;;;;;4178034;28;20057;-44
2022/04/21 05:37:40;;;;;;;0.40;0.20;;;;;;;;;;4177800;28;20057;-45
2022/04/21 05:39:41;;;;;;;0.65;0.40;;;;;;;;;;4177379;28;20385;-44
2022/04/21 05:41:44;;;;;;;0.22;0.20;;;;;;;;;;4178283;28;20095;-41
2022/04/21 05:43:46;;;;;;;0.13;0.13;;;;;;;;;;4177818;28;20106;-41
2022/04/21 05:45:49;;;;;;;0.35;0.20;;;;;;;;;;4177990;28;20056;-44
2022/04/21 05:47:50;;;;;;;1.35;0.30;;;;;;;;;;4177798;28;20060;-43
2022/04/21 05:49:51;;;;;;;0.30;0.20;;;;;;;;;;4165658;28;20057;-45
2022/04/21 05:51:53;;;;;;;1.85;0.25;;;;;;;;;;4165990;28;20470;-44
2022/04/21 05:53:57;;;;;;;0.28;0.22;;;;;;;;;;4178632;28;20067;-43
2022/04/21 05:56:01;;;;;;;0.30;0.28;;;;;;;;;;4184036;28;20405;-44
2022/04/21 05:58:02;;;;;;;1.48;0.40;;;;;;;;;;4181031;28;20110;-43
2022/04/21 06:00:04;;;;;;;0.80;0.20;;;;;;;;;;4172533;28;20118;-39
2022/04/21 06:02:13;;;;;;;0.60;0.30;;;;;;;;;;4164142;28;20061;-45
2022/04/21 06:04:14;;;;;;;1.55;0.20;;;;;;;;;;4174167;28;20049;-39
2022/04/21 06:06:15;;;;;;;0.38;0.28;;;;;;;;;;4175103;28;20181;-40
2022/04/21 06:08:16;;;;;;;0.80;0.28;;;;;;;;;;4171297;28;20158;-45
2022/04/21 06:10:18;;;;;;;0.50;0.30;;;;;;;;;;4166964;28;20053;-41
2022/04/21 06:12:19;;;;;;;1.27;0.25;;;;;;;;;;4165850;28;20064;-43
2022/04/21 06:14:21;;;;;;;0.47;0.28;;;;;;;;;;4153809;28;20048;-44
2022/04/21 06:16:22;;;;;;;0.60;0.30;;;;;;;;;;4164772;28;20677;-42
2022/04/21 06:18:24;;;;;;;0.63;0.32;;;;;;;;;;4170041;28;20103;-41
2022/04/21 06:20:26;;;;;;;0.50;0.30;;;;;;;;;;4159875;28;20057;-40
2022/04/21 06:22:28;;;;;;;0.22;0.22;;;;;;;;;;4147949;28;20053;-38
2022/04/21 06:24:29;;;;;;;0.40;0.20;;;;;;;;;;4146618;28;20652;-40
2022/04/21 06:26:30;;;;;;;5.05;0.40;;;;;;;;;;4157869;28;20142;-38
2022/04/21 06:28:34;;;;;;;0.65;0.30;;;;;;;;;;4154862;28;20052;-39
2022/04/21 06:30:35;;;;;;;1.63;0.47;;;;;;;;;;4143574;28;20057;-36
2022/04/21 06:32:36;;;;;;;4.68;0.22;;;;;;;;;;4158773;28;20060;-36
2022/04/21 06:34:37;;;;;;;0.45;0.20;;;;;;;;;;4161970;28;20057;-36
2022/04/21 06:36:39;;;;;;;3.40;0.30;;;;;;;;;;4156706;28;20057;-37
2022/04/21 06:38:40;;;;;;;1.00;0.40;;;;;;;;;;4150343;28;20414;-36
2022/04/21 06:40:42;;;;;;;0.75;0.40;;;;;;;;;;4146988;28;20121;-37
2022/04/21 06:42:43;;;;;;;0.63;0.30;;;;;;;;;;4152029;28;20057;-36
2022/04/21 06:49:24;;;;;;;3.08;0.30;;;;;;;;;;4155186;28;20060;-39
2022/04/21 06:51:27;;;;;;;1.33;0.10;;;;;;;;;;4150806;28;20068;-37
2022/04/21 06:53:29;;;;;;;0.35;0.25;;;;;;;;;;4154292;28;20094;-37
2022/04/21 06:55:31;;;;;;;0.65;0.22;;;;;;;;;;4157903;28;20056;-37
2022/04/21 06:57:32;;;;;;;0.80;0.20;;;;;;;;;;4151207;28;20301;-36
2022/04/21 06:59:33;;;;;;;1.35;0.30;;;;;;;;;;4141917;28;21178;-37
2022/04/21 07:01:35;;;;;;;0.63;0.25;;;;;;;;;;4154631;28;20057;-38
2022/04/21 07:03:36;;;;;;;2.25;0.30;;;;;;;;;;4150819;28;20130;-36
2022/04/21 07:05:37;;;;;;;0.77;0.30;;;;;;;;;;4152226;28;20565;-39
2022/04/21 07:07:39;;;;;;;3.58;0.40;;;;;;;;;;4157043;28;20053;-45
2022/04/21 07:09:40;;;;;;;0.10;0.10;;;;;;;;;;4167580;28;20056;-39
2022/04/21 07:11:43;;;;;;;1.13;0.30;;;;;;;;;;4158239;28;20134;-39
2022/04/21 07:13:44;;;;;;;1.98;0.20;;;;;;;;;;4165075;28;20650;-38
2022/04/21 07:15:46;;;;;;;2.55;0.30;;;;;;;;;;4158406;28;20380;-38
2022/04/21 07:17:47;;;;;;;0.85;0.30;;;;;;;;;;4158891;28;20056;-38
2022/04/21 07:19:48;;;;;;;1.02;0.30;;;;;;;;;;4161321;28;20528;-38
2022/04/21 07:21:49;;;;;;;0.30;0.22;;;;;;;;;;4162740;28;20057;-38
2022/04/21 07:23:50;;;;;;;1.30;0.40;;;;;;;;;;4161799;28;20590;-40
2022/04/21 07:25:51;;;;;;;0.43;0.30;;;;;;;;;;4169194;28;20097;-38
2022/04/21 07:27:54;;;;;;;1.52;0.30;;;;;;;;;;4160848;28;20057;-38
2022/04/21 07:29:56;;;;;;;3.80;0.55;;;;;;;;;;4161301;28;20049;-38
2022/04/21 07:31:57;;;;;;;0.32;0.22;;;;;;;;;;4166966;28;20115;-38
2022/04/21 07:33:58;;;;;;;0.43;0.20;;;;;;;;;;4161835;28;20110;-38
2022/04/21 07:35:59;;;;;;;0.50;0.30;;;;;;;;;;4160637;28;20052;-38
2022/04/21 07:38:00;;;;;;;1.65;0.30;;;;;;;;;;4170952;28;20126;-38
2022/04/21 07:40:01;;;;;;;0.60;0.20;;;;;;;;;;4157980;28;20326;-38
2022/04/21 07:42:03;;;;;;;0.40;0.20;;;;;;;;;;4168549;28;20123;-38
2022/04/21 07:44:05;;;;;;;0.57;0.30;;;;;;;;;;4159370;28;20053;-38
2022/04/21 07:46:06;;;;;;;0.68;0.20;;;;;;;;;;4160751;28;20114;-38
2022/04/21 07:48:07;;;;;;;2.63;0.25;;;;;;;;;;4157934;28;20765;-38
2022/04/21 07:50:09;;;;;;;0.40;0.20;;;;;;;;;;4160370;28;20087;-38
2022/04/21 07:54:30;;;;;;;0.88;0.40;;;;;;;;;;4168891;28;20079;-38
2022/04/21 07:56:31;;;;;;;0.77;0.30;;;;;;;;;;4164494;28;20271;-38
2022/04/21 07:58:32;;;;;;;0.60;0.30;;;;;;;;;;4164544;28;20259;-38
2022/04/21 08:00:36;;;;;;;0.65;0.30;;;;;;;;;;4156283;28;20068;-37
2022/04/21 08:02:42;;;;;;;1.55;0.35;;;;;;;;;;4148287;28;20053;-37
2022/04/21 08:04:44;;;;;;;1.20;0.43;;;;;;;;;;4150299;28;20060;-38
2022/04/21 08:06:45;;;;;;;1.23;0.40;;;;;;;;;;4162505;28;20518;-40
2022/04/21 08:08:47;;;;;;;1.13;0.35;;;;;;;;;;4156362;28;20054;-40
2022/04/21 08:10:48;;;;;;;0.50;0.38;;;;;;;;;;4157581;28;20110;-40
2022/04/21 08:12:51;;;;;;;0.55;0.32;;;;;;;;;;4148924;28;20067;-43
2022/04/21 08:14:52;;;;;;;2.20;0.30;;;;;;;;;;4149818;28;20068;-39
2022/04/21 08:16:54;;;;;;;0.73;0.35;;;;;;;;;;4160491;28;20061;-40
2022/04/21 08:18:55;;;;;;;2.60;0.50;;;;;;;;;;4161292;28;20533;-40
2022/04/21 08:20:58;;;;;;;2.47;0.40;;;;;;;;;;4165358;28;20061;-40
2022/04/21 08:22:59;;;;;;;2.58;0.38;;;;;;;;;;4158190;28;20107;-40
2022/04/21 08:34:20;;;;;;;8.32;0.52;;;;;;;;;;4165164;28;19931;-38
2022/04/21 08:36:21;;;;;;;1.35;0.35;;;;;;;;;;4164770;28;22791;-38
2022/04/21 08:38:24;;;;;;;2.33;0.60;;;;;;;;;;4160928;28;20103;-38
2022/04/21 08:40:27;;;;;;;5.25;0.60;;;;;;;;;;4159770;28;20084;-37
2022/04/21 08:42:32;;;;;;;4.32;0.63;;;;;;;;;;4161402;28;20061;-39
2022/04/21 08:44:33;;;;;;;3.50;0.55;;;;;;;;;;4145653;28;20053;-39
2022/04/21 08:46:36;;;;;;;3.28;0.50;;;;;;;;;;4164927;28;20061;-41
2022/04/21 08:48:38;;;;;;;1.05;0.40;;;;;;;;;;4158823;28;20134;-40
2022/04/21 08:50:40;;;;;;;3.10;0.75;;;;;;;;;;4157578;28;20057;-39
2022/04/21 08:52:42;;;;;;;1.77;0.60;;;;;;;;;;4153126;28;20064;-38
2022/04/21 08:54:43;;;;;;;3.20;0.43;;;;;;;;;;4167067;28;20593;-39
2022/04/21 08:56:45;;;;;;;2.67;0.80;;;;;;;;;;4160127;28;20049;-38
2022/04/21 08:58:47;;;;;;;3.40;0.30;;;;;;;;;;4158661;28;20529;-38
2022/04/21 09:00:48;;;;;;;1.52;0.65;;;;;;;;;;4154617;28;20061;-38
2022/04/21 09:02:50;;;;;;;4.40;0.50;;;;;;;;;;4159095;28;21365;-37
2022/04/21 09:04:51;;;;;;;3.65;0.50;;;;;;;;;;4160769;28;20138;-39
2022/04/21 09:06:53;;;;;;;4.10;0.93;;;;;;;;;;4157010;28;20143;-39
2022/04/21 09:09:13;;;;;;;2.40;0.38;;;;;;;;;;4163583;28;20111;-39
2022/04/21 09:11:15;;;;;;;1.85;0.50;;;;;;;;;;4167087;28;20056;-37
2022/04/21 09:13:16;;;;;;;2.22;0.45;;;;;;;;;;4169389;28;20098;-38
2022/04/21 09:15:20;;;;;;;2.95;0.60;;;;;;;;;;4164533;28;20134;-38
2022/04/21 09:17:21;;;;;;;1.65;0.47;;;;;;;;;;4160687;28;20111;-38
2022/04/21 09:19:22;;;;;;;2.13;0.52;;;;;;;;;;4168672;28;20565;-38
2022/04/21 09:21:23;;;;;;;1.85;0.40;;;;;;;;;;4164155;28;20122;-38
2022/04/21 09:23:32;;;;;;;2.65;0.40;;;;;;;;;;4158417;28;20099;-38
2022/04/21 09:25:49;;;;;;;3.30;0.43;;;;;;;;;;4162016;28;20496;-39
2022/04/21 09:27:52;;;;;;;2.35;0.40;;;;;;;;;;4158191;28;20107;-38
2022/04/21 09:29:56;;;;;;;1.00;0.30;;;;;;;;;;4159762;28;20065;-38
2022/04/21 09:32:02;;;;;;;1.80;0.25;;;;;;;;;;4166145;28;20064;-38
2022/04/21 09:34:04;;;;;;;2.03;0.43;;;;;;;;;;4158733;28;20064;-38
2022/04/21 09:36:06;;;;;;;1.27;0.77;;;;;;;;;;4169833;28;21426;-39
2022/04/21 09:38:08;;;;;;;2.08;0.30;;;;;;;;;;4161038;28;20110;-39
2022/04/21 09:40:11;;;;;;;0.95;0.30;;;;;;;;;;4160401;28;20469;-39
2022/04/21 09:42:12;;;;;;;1.08;0.20;;;;;;;;;;4160031;28;20061;-39
2022/04/21 09:46:38;;;;;;;1.98;0.38;;;;;;;;;;4138332;28;20060;-37
2022/04/21 09:48:39;;;;;;;0.45;0.32;;;;;;;;;;4158473;28;20060;-37
2022/04/21 09:50:42;;;;;;;0.47;0.43;;;;;;;;;;4157611;28;20052;-38
2022/04/21 09:52:49;;;;;;;4.20;0.30;;;;;;;;;;4149196;28;20069;-38
2022/04/21 09:54:50;;;;;;;1.50;0.63;;;;;;;;;;4163223;28;20074;-37
2022/04/21 09:56:53;;;;;;;1.05;0.30;;;;;;;;;;4152413;28;20056;-37
2022/04/21 09:58:54;;;;;;;0.45;0.20;;;;;;;;;;4161741;28;20053;-37
2022/04/21 10:00:56;;;;;;;0.30;0.20;;;;;;;;;;4148088;28;20067;-38
2022/04/21 10:02:59;;;;;;;1.30;0.30;;;;;;;;;;4159799;28;20080;-38
2022/04/21 10:05:00;;;;;;;0.57;0.30;;;;;;;;;;4163262;28;20486;-37
2022/04/21 10:07:02;;;;;;;0.80;0.20;;;;;;;;;;4170145;28;20111;-39
2022/04/21 10:09:03;;;;;;;4.43;0.30;;;;;;;;;;4165330;28;20099;-36
2022/04/21 10:11:06;;;;;;;2.22;0.30;;;;;;;;;;4166328;28;20058;-36
2022/04/21 10:13:07;;;;;;;0.65;0.20;;;;;;;;;;4164989;28;20052;-36
2022/04/21 10:15:10;;;;;;;0.50;0.30;;;;;;;;;;4173258;28;20048;-37
2022/04/21 10:17:12;;;;;;;3.15;0.30;;;;;;;;;;4168253;28;20201;-36
2022/04/21 10:19:14;;;;;;;0.82;0.30;;;;;;;;;;4167952;28;20053;-36
2022/04/21 10:21:37;;;;;;;0.60;0.30;;;;;;;;;;4167363;28;20053;-37
2022/04/21 10:23:42;;;;;;;1.33;0.40;;;;;;;;;;4163914;28;20560;-36
2022/04/21 10:25:44;;;;;;;2.10;0.30;;;;;;;;;;4167941;28;20057;-36
2022/04/21 10:27:47;;;;;;;3.05;0.30;;;;;;;;;;4172750;28;20436;-37
2022/04/21 10:29:50;;;;;;;0.75;0.40;;;;;;;;;;4168013;28;20064;-37
2022/04/21 10:32:03;;;;;;;2.00;0.28;;;;;;;;;;4173027;28;20059;-37
2022/04/21 10:34:05;;;;;;;0.55;0.40;;;;;;;;;;4170378;28;20067;-37
2022/04/21 10:36:07;;;;;;;0.55;0.20;;;;;;;;;;4169770;28;20069;-37
2022/04/21 10:38:14;;;;;;;0.75;0.20;;;;;;;;;;4169473;28;20041;-37
2022/04/21 10:40:21;;;;;;;1.00;0.30;;;;;;;;;;4164715;28;20079;-37
2022/04/21 10:42:22;;;;;;;0.40;0.30;;;;;;;;;;4167061;28;20114;-37
2022/04/21 10:44:26;;;;;;;0.40;0.30;;;;;;;;;;4164193;28;20117;-37
2022/04/21 10:46:29;;;;;;;0.70;0.40;;;;;;;;;;4169968;28;20428;-37
2022/04/21 10:48:40;;;;;;;1.05;0.50;;;;;;;;;;4171602;28;20509;-38
2022/04/21 10:50:43;;;;;;;0.75;0.30;;;;;;;;;;4161282;28;20471;-37
2022/04/21 10:57:28;;;;;;;0.88;0.22;;;;;;;;;;4158766;28;20491;-39
2022/04/21 11:00:08;;;;;;;0.77;0.20;;;;;;;;;;4159484;28;20435;-39
2022/04/21 11:02:11;;;;;;;0.10;0.10;;;;;;;;;;4158559;28;20057;-40
2022/04/21 11:04:22;;;;;;;0.32;0.20;;;;;;;;;;4162249;28;20048;-38
2022/04/21 11:06:38;;;;;;;0.45;0.32;;;;;;;;;;4161839;28;23672;-40
2022/04/21 11:08:41;;;;;;;1.63;0.28;;;;;;;;;;4163624;28;20049;-40
2022/04/21 11:10:43;;;;;;;0.63;0.30;;;;;;;;;;4163120;28;20068;-39
2022/04/21 11:12:46;;;;;;;1.05;0.25;;;;;;;;;;4163680;28;20114;-39
2022/04/21 11:14:47;;;;;;;1.55;0.20;;;;;;;;;;4152931;28;20060;-39
2022/04/21 11:16:48;;;;;;;2.28;0.20;;;;;;;;;;4162406;28;20064;-37
2022/04/21 11:18:50;;;;;;;0.47;0.28;;;;;;;;;;4158401;28;20087;-38
2022/04/21 11:20:51;;;;;;;0.40;0.28;;;;;;;;;;4156251;28;20111;-38
2022/04/21 11:22:53;;;;;;;0.30;0.30;;;;;;;;;;4169326;28;20064;-38
2022/04/21 11:25:01;;;;;;;4.80;0.40;;;;;;;;;;4152808;28;20582;-37
2022/04/21 11:27:02;;;;;;;0.77;0.40;;;;;;;;;;4166019;28;20052;-37
2022/04/21 11:29:03;;;;;;;0.52;0.30;;;;;;;;;;4159363;28;20048;-39
2022/04/21 11:31:05;;;;;;;1.50;0.40;;;;;;;;;;4160241;28;20045;-38
2022/04/21 11:33:10;;;;;;;2.45;0.63;;;;;;;;;;4165769;28;20064;-37
2022/04/21 11:35:12;;;;;;;0.68;0.30;;;;;;;;;;4161032;28;20056;-38
2022/04/21 11:37:13;;;;;;;5.97;0.20;;;;;;;;;;4162858;28;20069;-37
2022/04/21 11:39:15;;;;;;;1.17;0.40;;;;;;;;;;4156861;28;20659;-36
2022/04/21 11:41:16;;;;;;;0.95;0.35;;;;;;;;;;4159594;28;20107;-37
2022/04/21 11:43:17;;;;;;;1.23;0.40;;;;;;;;;;4162603;28;20061;-38
2022/04/21 11:45:23;;;;;;;0.45;0.20;;;;;;;;;;4163708;28;20056;-36
2022/04/21 11:47:25;;;;;;;0.63;0.40;;;;;;;;;;4166744;28;20126;-38
2022/04/21 11:49:26;;;;;;;1.55;0.30;;;;;;;;;;4166794;28;20102;-36
2022/04/21 11:51:28;;;;;;;0.52;0.32;;;;;;;;;;4158199;28;20061;-36
2022/04/21 11:53:36;;;;;;;0.80;0.40;;;;;;;;;;4170125;28;20057;-37
2022/04/21 11:55:37;;;;;;;0.65;0.30;;;;;;;;;;4166744;28;20799;-37
2022/04/21 11:57:42;;;;;;;0.75;0.50;;;;;;;;;;4161963;28;20056;-37
2022/04/21 11:59:43;;;;;;;0.52;0.30;;;;;;;;;;4151860;28;20079;-37
2022/04/21 12:06:29;;;;;;;2.25;0.30;;;;;;;;;;4163253;28;20060;-37
2022/04/21 12:08:30;;;;;;;1.92;0.20;;;;;;;;;;4161257;28;20145;-37
2022/04/21 12:10:31;;;;;;;0.68;0.20;;;;;;;;;;4162163;28;20415;-39
2022/04/21 12:12:32;;;;;;;2.05;0.30;;;;;;;;;;4130044;28;20104;-37
2022/04/21 12:14:34;;;;;;;2.92;0.35;;;;;;;;;;4160467;28;20080;-37
2022/04/21 12:16:46;;;;;;;0.73;0.30;;;;;;;;;;4166054;28;20080;-37
2022/04/21 12:18:47;;;;;;;0.63;0.50;;;;;;;;;;4159552;28;20056;-38
2022/04/21 12:20:53;;;;;;;2.47;0.20;;;;;;;;;;4161722;28;20064;-37
2022/04/21 12:22:55;;;;;;;0.60;0.40;;;;;;;;;;4150227;28;20102;-37
2022/04/21 12:24:56;;;;;;;0.45;0.25;;;;;;;;;;4159013;28;20106;-37
2022/04/21 12:26:59;;;;;;;0.40;0.30;;;;;;;;;;4152645;28;20056;-38
2022/04/21 12:29:00;;;;;;;1.45;0.40;;;;;;;;;;4162810;28;20125;-38
2022/04/21 12:31:07;;;;;;;2.05;0.20;;;;;;;;;;4166343;28;20090;-38
2022/04/21 12:33:09;;;;;;;0.73;0.30;;;;;;;;;;4164620;28;20126;-37
2022/04/21 12:35:11;;;;;;;2.85;0.30;;;;;;;;;;4166583;28;20700;-37
2022/04/21 12:37:12;;;;;;;1.50;0.32;;;;;;;;;;4166649;28;20063;-36
2022/04/21 12:39:14;;;;;;;1.15;0.30;;;;;;;;;;4166342;28;20049;-38
2022/04/21 12:41:15;;;;;;;0.40;0.40;;;;;;;;;;4168289;28;20075;-40
2022/04/21 12:43:16;;;;;;;2.63;0.40;;;;;;;;;;4145707;28;20082;-38
2022/04/21 12:45:18;;;;;;;0.75;0.43;;;;;;;;;;4163902;28;20114;-38
2022/04/21 12:47:22;;;;;;;0.75;0.20;;;;;;;;;;4161830;28;20056;-38
2022/04/21 12:49:51;;;;;;;0.38;0.30;;;;;;;;;;4163965;28;20504;-38
2022/04/21 12:51:54;;;;;;;0.50;0.30;;;;;;;;;;4161723;28;20083;-37
2022/04/21 12:53:59;;;;;;;0.30;0.28;;;;;;;;;;4155786;28;20058;-37
2022/04/21 12:56:11;;;;;;;1.80;0.30;;;;;;;;;;4170749;28;20065;-36
2022/04/21 12:58:13;;;;;;;1.15;0.28;;;;;;;;;;4159654;28;20576;-38
2022/04/21 13:00:14;;;;;;;0.40;0.30;;;;;;;;;;4159838;28;20122;-38
2022/04/21 13:02:16;;;;;;;0.30;0.30;;;;;;;;;;4146058;28;20100;-37
2022/04/21 13:04:17;;;;;;;0.20;0.20;;;;;;;;;;4152085;28;20057;-37
2022/04/21 13:06:28;;;;;;;0.95;0.30;;;;;;;;;;4158685;28;20123;-37
2022/04/21 13:08:30;;;;;;;0.60;0.25;;;;;;;;;;4167586;28;20091;-36